Time;durP1;ratioP1;P1;durP2;ratioP2;P2;SDS_P1;SDS_P2;PMS_P1;PMS_P2;Temp;Humidity;BMP_temperature;BMP_pressure;BME280_temperature;BME280_humidity;BME280_pressure;Samples;Min_cycle;Max_cycle;Signal;HPM_P1;HPM_P2
2023/04/17 00:02:05;;;;;;;;;;;20.10;81.00;;;;;;5116801;28;20311;-53
2023/04/17 00:04:31;;;;;;;;;;;20.10;80.90;;;;;;5117008;28;19908;-52
2023/04/17 00:06:58;;;;;;;;;;;20.10;81.00;;;;;;5116601;28;20006;-50
2023/04/17 00:09:24;;;;;;;;;;;20.10;80.80;;;;;;5116810;28;19912;-52
2023/04/17 00:11:49;;;;;;;;;;;20.10;80.90;;;;;;5117154;28;20291;-51
2023/04/17 00:14:15;;;;;;;;;;;20.10;80.90;;;;;;5116599;28;19963;-50
2023/04/17 00:16:40;;;;;;;;;;;20.10;80.90;;;;;;5116952;28;19908;-52
2023/04/17 00:19:06;;;;;;;;;;;20.10;80.90;;;;;;5116715;27;20369;-50
2023/04/17 00:21:31;;;;;;;;;;;20.10;81.00;;;;;;5117038;28;19951;-50
2023/04/17 00:23:57;;;;;;;;;;;20.10;80.80;;;;;;5116441;28;19907;-52
2023/04/17 00:26:23;;;;;;;;;;;20.10;80.90;;;;;;5116610;28;19929;-52
2023/04/17 00:28:49;;;;;;;;;;;20.20;80.90;;;;;;5114909;28;19998;-53
2023/04/17 00:31:15;;;;;;;;;;;20.10;80.80;;;;;;5116295;28;19919;-52
2023/04/17 00:33:40;;;;;;;;;;;20.10;80.90;;;;;;5115985;28;19908;-48
2023/04/17 00:36:06;;;;;;;;;;;20.10;80.80;;;;;;5116172;28;19994;-52
2023/04/17 00:38:31;;;;;;;;;;;20.20;81.50;;;;;;5116400;27;19911;-51
2023/04/17 00:40:57;;;;;;;;;;;20.10;80.90;;;;;;5114959;28;20305;-51
2023/04/17 00:43:22;;;;;;;;;;;20.20;80.80;;;;;;5114779;28;20401;-50
2023/04/17 00:45:48;;;;;;;;;;;20.20;80.80;;;;;;5115999;28;19955;-50
2023/04/17 00:48:15;;;;;;;;;;;20.20;81.40;;;;;;5116082;27;19908;-52
2023/04/17 00:50:41;;;;;;;;;;;20.20;80.90;;;;;;5116201;28;20003;-52
2023/04/17 00:53:06;;;;;;;;;;;20.20;81.10;;;;;;5116089;28;19955;-51
2023/04/17 00:55:33;;;;;;;;;;;20.20;81.20;;;;;;5115783;28;19908;-48
2023/04/17 00:57:59;;;;;;;;;;;20.10;81.40;;;;;;5115784;28;20374;-52
2023/04/17 01:00:24;;;;;;;;;;;20.10;81.20;;;;;;5115973;27;19908;-51
2023/04/17 01:02:50;;;;;;;;;;;20.10;81.20;;;;;;5115863;28;19908;-51
2023/04/17 01:05:16;;;;;;;;;;;20.00;81.50;;;;;;5115902;28;19908;-51
2023/04/17 01:07:41;;;;;;;;;;;20.00;81.40;;;;;;5118840;27;19973;-52
2023/04/17 01:10:07;;;;;;;;;;;20.00;81.30;;;;;;5126410;27;20282;-52
2023/04/17 01:12:33;;;;;;;;;;;20.00;81.40;;;;;;5131696;27;20289;-52
2023/04/17 01:14:58;;;;;;;;;;;20.00;81.40;;;;;;5115423;28;19953;-54
2023/04/17 01:17:27;;;;;;;;;;;20.00;81.60;;;;;;5115366;28;19915;-51
2023/04/17 01:19:53;;;;;;;;;;;20.00;81.60;;;;;;5115294;28;19934;-49
2023/04/17 01:22:19;;;;;;;;;;;20.00;81.50;;;;;;5115313;28;20313;-51
2023/04/17 01:24:45;;;;;;;;;;;20.00;81.60;;;;;;5120943;27;19918;-51
2023/04/17 01:27:14;;;;;;;;;;;20.00;81.40;;;;;;5113724;27;20398;-50
2023/04/17 01:29:39;;;;;;;;;;;20.00;81.40;;;;;;5118277;27;20031;-53
2023/04/17 01:32:05;;;;;;;;;;;19.60;74.60;;;;;;5117285;27;20350;-51
2023/04/17 01:34:30;;;;;;;;;;;19.70;78.20;;;;;;5115051;28;19929;-51
2023/04/17 01:36:56;;;;;;;;;;;19.80;79.80;;;;;;5115483;28;20003;-54
2023/04/17 01:39:21;;;;;;;;;;;19.80;80.10;;;;;;5127742;27;20293;-48
2023/04/17 01:41:47;;;;;;;;;;;19.80;80.50;;;;;;5135303;27;19914;-51
2023/04/17 01:44:12;;;;;;;;;;;19.80;80.60;;;;;;5135439;27;19908;-53
2023/04/17 01:46:38;;;;;;;;;;;19.90;80.60;;;;;;5120808;27;19919;-51
2023/04/17 01:49:03;;;;;;;;;;;19.90;80.80;;;;;;5117092;27;19922;-52
2023/04/17 01:51:30;;;;;;;;;;;19.90;80.70;;;;;;5124701;27;19998;-52
2023/04/17 01:53:55;;;;;;;;;;;19.90;80.80;;;;;;5135082;27;19908;-51
2023/04/17 01:56:21;;;;;;;;;;;19.90;80.80;;;;;;5123722;27;19919;-50
2023/04/17 01:58:47;;;;;;;;;;;20.00;80.90;;;;;;5111589;28;19954;-48
2023/04/17 02:01:12;;;;;;;;;;;20.00;80.60;;;;;;5111572;28;19959;-52
2023/04/17 02:03:37;;;;;;;;;;;20.00;80.90;;;;;;5112758;28;19930;-52
2023/04/17 02:06:03;;;;;;;;;;;20.00;81.10;;;;;;5112470;28;19949;-51
2023/04/17 02:08:28;;;;;;;;;;;20.00;81.10;;;;;;5111400;28;19908;-48
2023/04/17 02:10:54;;;;;;;;;;;20.00;81.20;;;;;;5112676;28;19911;-51
2023/04/17 02:13:20;;;;;;;;;;;20.00;81.00;;;;;;5114513;28;20294;-52
2023/04/17 02:15:45;;;;;;;;;;;20.00;81.00;;;;;;5114463;28;19907;-51
2023/04/17 02:18:11;;;;;;;;;;;20.10;81.00;;;;;;5114699;28;19908;-53
2023/04/17 02:20:36;;;;;;;;;;;20.10;80.80;;;;;;5114343;28;20427;-54
2023/04/17 02:23:02;;;;;;;;;;;20.10;80.90;;;;;;5114378;28;20006;-50
2023/04/17 02:25:28;;;;;;;;;;;20.10;80.80;;;;;;5114253;28;19914;-53
2023/04/17 02:27:55;;;;;;;;;;;20.10;80.80;;;;;;5114550;28;19998;-54
2023/04/17 02:30:21;;;;;;;;;;;20.10;80.90;;;;;;5114510;28;19911;-49
2023/04/17 02:32:46;;;;;;;;;;;20.20;80.60;;;;;;5113367;28;19911;-54
2023/04/17 02:35:12;;;;;;;;;;;20.20;80.70;;;;;;5114838;28;20350;-56
2023/04/17 02:37:37;;;;;;;;;;;20.20;80.40;;;;;;5113201;28;19994;-51
2023/04/17 02:40:06;;;;;;;;;;;20.30;80.70;;;;;;5114505;28;19933;-52
2023/04/17 02:42:31;;;;;;;;;;;20.20;80.60;;;;;;5114163;28;20361;-52
2023/04/17 02:44:57;;;;;;;;;;;20.20;80.70;;;;;;5114222;28;19933;-53
2023/04/17 02:47:22;;;;;;;;;;;20.30;80.60;;;;;;5114166;28;20410;-52
2023/04/17 02:49:48;;;;;;;;;;;20.30;80.70;;;;;;5114090;28;19958;-53
2023/04/17 02:52:13;;;;;;;;;;;20.30;80.70;;;;;;5114151;28;19912;-51
2023/04/17 02:54:39;;;;;;;;;;;20.30;80.70;;;;;;5114606;28;20011;-49
2023/04/17 02:57:04;;;;;;;;;;;20.30;80.60;;;;;;5116470;28;19915;-51
2023/04/17 02:59:30;;;;;;;;;;;20.30;80.50;;;;;;5118286;28;19908;-54
2023/04/17 03:01:58;;;;;;;;;;;20.30;80.50;;;;;;5118315;28;19908;-51
2023/04/17 03:04:24;;;;;;;;;;;20.30;80.50;;;;;;5118288;28;19988;-54
2023/04/17 03:06:50;;;;;;;;;;;20.30;80.30;;;;;;5117897;28;20428;-52
2023/04/17 03:09:17;;;;;;;;;;;20.40;80.60;;;;;;5117666;28;20396;-52
2023/04/17 03:11:42;;;;;;;;;;;20.40;80.50;;;;;;5118018;28;19927;-50
2023/04/17 03:14:08;;;;;;;;;;;20.40;80.40;;;;;;5117639;28;19912;-48
2023/04/17 03:16:33;;;;;;;;;;;20.40;80.20;;;;;;5117701;28;19911;-50
2023/04/17 03:18:58;;;;;;;;;;;20.40;80.20;;;;;;5117661;28;19921;-52
2023/04/17 03:21:25;;;;;;;;;;;20.40;80.20;;;;;;5117870;28;19953;-50
2023/04/17 03:23:50;;;;;;;;;;;20.40;80.80;;;;;;5117530;28;19908;-51
2023/04/17 03:26:16;;;;;;;;;;;20.40;80.20;;;;;;5118086;27;19933;-49
2023/04/17 03:28:41;;;;;;;;;;;20.40;80.30;;;;;;5117442;28;19950;-53
2023/04/17 03:31:07;;;;;;;;;;;20.40;80.20;;;;;;5117565;28;19916;-49
2023/04/17 03:33:32;;;;;;;;;;;20.40;80.30;;;;;;5117349;28;20328;-50
2023/04/17 03:35:58;;;;;;;;;;;20.50;80.20;;;;;;5117181;28;19911;-51
2023/04/17 03:38:23;;;;;;;;;;;20.50;80.40;;;;;;5117804;28;19907;-51
2023/04/17 03:40:49;;;;;;;;;;;20.50;80.30;;;;;;5117549;28;20002;-52
2023/04/17 03:43:14;;;;;;;;;;;20.50;80.30;;;;;;5117571;28;19920;-52
2023/04/17 03:45:40;;;;;;;;;;;20.50;80.50;;;;;;5117433;27;19912;-51
2023/04/17 03:48:06;;;;;;;;;;;20.50;80.30;;;;;;5117384;28;19915;-50
2023/04/17 03:50:31;;;;;;;;;;;20.50;80.30;;;;;;5117375;28;20350;-51
2023/04/17 03:52:57;;;;;;;;;;;20.50;80.20;;;;;;5117321;28;19947;-50
2023/04/17 03:55:22;;;;;;;;;;;20.50;80.30;;;;;;5116948;28;19977;-51
2023/04/17 03:57:49;;;;;;;;;;;20.50;80.40;;;;;;5116911;28;19922;-52
2023/04/17 04:00:15;;;;;;;;;;;20.50;80.40;;;;;;5117027;28;19908;-50
2023/04/17 04:02:41;;;;;;;;;;;20.50;80.40;;;;;;5117044;28;20007;-50
2023/04/17 04:05:06;;;;;;;;;;;20.50;80.30;;;;;;5116725;28;19947;-50
2023/04/17 04:07:32;;;;;;;;;;;20.50;80.90;;;;;;5115829;28;20427;-52
2023/04/17 04:09:57;;;;;;;;;;;20.50;80.30;;;;;;5116270;28;19912;-53
2023/04/17 04:12:23;;;;;;;;;;;20.50;80.00;;;;;;5116567;28;19912;-52
2023/04/17 04:14:49;;;;;;;;;;;20.50;80.20;;;;;;5116503;28;19908;-50
2023/04/17 04:17:14;;;;;;;;;;;20.50;80.00;;;;;;5115355;28;20362;-51
2023/04/17 04:19:41;;;;;;;;;;;20.50;80.30;;;;;;5115683;28;19966;-52
2023/04/17 04:22:07;;;;;;;;;;;20.50;80.40;;;;;;5116703;28;19912;-53
2023/04/17 04:24:32;;;;;;;;;;;20.60;80.40;;;;;;5116368;28;20351;-53
2023/04/17 04:27:03;;;;;;;;;;;20.60;80.50;;;;;;5116723;28;19914;-53
2023/04/17 04:29:29;;;;;;;;;;;20.50;80.50;;;;;;5116430;28;19918;-51
2023/04/17 04:31:54;;;;;;;;;;;20.50;80.40;;;;;;5116253;28;20002;-52
2023/04/17 04:34:20;;;;;;;;;;;20.50;80.60;;;;;;5116103;28;19911;-52
2023/04/17 04:36:49;;;;;;;;;;;20.50;80.70;;;;;;5116363;28;20015;-52
2023/04/17 04:39:19;;;;;;;;;;;20.40;80.70;;;;;;5116574;28;19912;-51
2023/04/17 04:41:45;;;;;;;;;;;20.40;80.90;;;;;;5116028;28;19915;-53
2023/04/17 04:44:10;;;;;;;;;;;20.40;80.90;;;;;;5116438;28;20469;-52
2023/04/17 04:46:36;;;;;;;;;;;20.30;81.00;;;;;;5115769;28;19951;-52
2023/04/17 04:49:01;;;;;;;;;;;20.30;80.80;;;;;;5115763;28;20366;-55
2023/04/17 04:51:27;;;;;;;;;;;20.30;81.00;;;;;;5114442;28;20003;-54
2023/04/17 04:53:52;;;;;;;;;;;20.30;81.10;;;;;;5114658;28;19915;-54
2023/04/17 04:56:18;;;;;;;;;;;20.40;80.80;;;;;;5115695;28;19908;-53
2023/04/17 04:58:43;;;;;;;;;;;20.40;80.80;;;;;;5115897;28;19957;-53
2023/04/17 05:01:09;;;;;;;;;;;20.40;80.70;;;;;;5115788;28;19908;-51
2023/04/17 05:03:36;;;;;;;;;;;20.50;80.80;;;;;;5114363;27;19943;-49
2023/04/17 05:06:01;;;;;;;;;;;20.50;80.70;;;;;;5118010;27;19955;-51
2023/04/17 05:08:27;;;;;;;;;;;20.50;80.20;;;;;;5132607;27;20427;-54
2023/04/17 05:10:52;;;;;;;;;;;20.60;80.30;;;;;;5128656;27;19912;-51
2023/04/17 05:13:18;;;;;;;;;;;20.60;80.20;;;;;;5115513;28;19911;-53
2023/04/17 05:15:43;;;;;;;;;;;20.50;80.20;;;;;;5120436;27;19912;-53
2023/04/17 05:18:09;;;;;;;;;;;20.50;80.50;;;;;;5117240;27;19912;-53
2023/04/17 05:20:36;;;;;;;;;;;20.50;80.30;;;;;;5131285;27;19912;-52
2023/04/17 05:23:02;;;;;;;;;;;20.50;79.70;;;;;;5133578;27;19924;-55
2023/04/17 05:25:27;;;;;;;;;;;20.50;79.40;;;;;;5133051;27;19926;-53
2023/04/17 05:27:53;;;;;;;;;;;20.30;79.00;;;;;;5133137;27;19907;-55
2023/04/17 05:30:18;;;;;;;;;;;20.30;80.40;;;;;;5131423;27;19922;-52
2023/04/17 05:32:44;;;;;;;;;;;20.30;80.80;;;;;;5126014;27;20258;-52
2023/04/17 05:35:09;;;;;;;;;;;20.30;81.00;;;;;;5133433;27;19950;-53
2023/04/17 05:37:35;;;;;;;;;;;20.20;81.00;;;;;;5132829;27;19918;-53
2023/04/17 05:40:01;;;;;;;;;;;20.20;81.20;;;;;;5118249;27;19912;-65
2023/04/17 05:42:26;;;;;;;;;;;20.20;81.20;;;;;;5124114;27;20373;-61
2023/04/17 05:44:52;;;;;;;;;;;20.20;81.30;;;;;;5130347;27;19916;-54
2023/04/17 05:47:18;;;;;;;;;;;20.30;81.20;;;;;;5134282;27;19950;-55
2023/04/17 05:49:43;;;;;;;;;;;20.30;81.30;;;;;;5132021;27;19959;-51
2023/04/17 05:52:09;;;;;;;;;;;20.30;81.30;;;;;;5135091;27;19916;-50
2023/04/17 05:54:34;;;;;;;;;;;20.30;81.20;;;;;;5132919;27;19960;-54
2023/04/17 05:57:01;;;;;;;;;;;20.30;81.30;;;;;;5134919;27;20247;-50
2023/04/17 05:59:26;;;;;;;;;;;20.30;81.40;;;;;;5132654;27;19998;-53
2023/04/17 06:01:52;;;;;;;;;;;20.30;81.40;;;;;;5130661;27;19950;-56
2023/04/17 06:04:17;;;;;;;;;;;20.30;81.40;;;;;;5133952;27;19918;-54
2023/04/17 06:06:43;;;;;;;;;;;20.30;81.50;;;;;;5123458;27;20381;-54
2023/04/17 06:09:09;;;;;;;;;;;20.30;81.60;;;;;;5114437;28;19968;-53
2023/04/17 06:11:35;;;;;;;;;;;20.30;81.60;;;;;;5126641;27;19985;-54
2023/04/17 06:14:01;;;;;;;;;;;20.20;82.10;;;;;;5131137;27;19911;-54
2023/04/17 06:16:26;;;;;;;;;;;20.30;81.70;;;;;;5133522;27;19907;-53
2023/04/17 06:18:52;;;;;;;;;;;20.20;81.60;;;;;;5129751;27;20014;-53
2023/04/17 06:21:17;;;;;;;;;;;20.20;81.70;;;;;;5117945;28;19911;-52
2023/04/17 06:23:43;;;;;;;;;;;20.30;81.70;;;;;;5114475;28;19912;-50
2023/04/17 06:26:09;;;;;;;;;;;20.30;81.70;;;;;;5114247;27;19908;-50
2023/04/17 06:28:35;;;;;;;;;;;20.30;81.70;;;;;;5114002;28;19947;-53
2023/04/17 06:31:00;;;;;;;;;;;20.30;81.60;;;;;;5114608;28;19958;-54
2023/04/17 06:33:26;;;;;;;;;;;20.30;81.60;;;;;;5118876;28;19911;-54
2023/04/17 06:35:51;;;;;;;;;;;20.30;81.60;;;;;;5119330;27;19919;-51
2023/04/17 06:38:17;;;;;;;;;;;20.40;81.60;;;;;;5126605;27;19915;-53
2023/04/17 06:40:42;;;;;;;;;;;20.40;81.50;;;;;;5138778;27;19914;-54
2023/04/17 06:43:08;;;;;;;;;;;20.40;81.50;;;;;;5135334;27;20268;-54
2023/04/17 06:45:33;;;;;;;;;;;20.50;81.40;;;;;;5134608;27;19911;-52
2023/04/17 06:47:59;;;;;;;;;;;20.50;81.10;;;;;;5127962;27;20307;-49
2023/04/17 06:50:24;;;;;;;;;;;20.50;81.10;;;;;;5125538;27;20425;-56
2023/04/17 06:52:49;;;;;;;;;;;20.60;81.00;;;;;;5126918;27;19916;-55
2023/04/17 06:55:15;;;;;;;;;;;20.60;81.00;;;;;;5133584;27;20029;-53
2023/04/17 06:57:41;;;;;;;;;;;20.60;80.90;;;;;;5129486;27;19970;-54
2023/04/17 07:00:06;;;;;;;;;;;20.60;80.80;;;;;;5130036;27;19915;-51
2023/04/17 07:02:32;;;;;;;;;;;20.60;80.80;;;;;;5128214;27;20316;-51
2023/04/17 07:04:57;;;;;;;;;;;20.60;81.40;;;;;;5136737;27;19911;-55
2023/04/17 07:07:23;;;;;;;;;;;20.60;80.90;;;;;;5130269;27;19918;-53
2023/04/17 07:09:49;;;;;;;;;;;20.60;81.00;;;;;;5130031;27;19976;-51
2023/04/17 07:12:14;;;;;;;;;;;20.50;81.00;;;;;;5126018;27;20358;-54
2023/04/17 07:14:40;;;;;;;;;;;20.50;81.10;;;;;;5115818;27;19960;-53
2023/04/17 07:17:06;;;;;;;;;;;20.50;81.30;;;;;;5138334;27;19930;-55
2023/04/17 07:19:32;;;;;;;;;;;20.40;81.40;;;;;;5123025;27;20232;-54
2023/04/17 07:21:57;;;;;;;;;;;20.40;81.40;;;;;;5117703;28;19969;-51
2023/04/17 07:24:23;;;;;;;;;;;20.40;81.50;;;;;;5122220;27;20342;-49
2023/04/17 07:26:48;;;;;;;;;;;20.50;81.60;;;;;;5134733;27;19974;-53
2023/04/17 07:29:14;;;;;;;;;;;20.50;81.50;;;;;;5124170;27;19912;-54
2023/04/17 07:31:39;;;;;;;;;;;20.50;81.50;;;;;;5128879;27;20385;-53
2023/04/17 07:34:05;;;;;;;;;;;20.50;81.50;;;;;;5129166;27;19912;-52
2023/04/17 07:36:30;;;;;;;;;;;20.50;81.40;;;;;;5138120;27;19914;-54
2023/04/17 07:38:56;;;;;;;;;;;20.50;81.40;;;;;;5120957;27;19995;-49
2023/04/17 07:41:21;;;;;;;;;;;20.50;81.40;;;;;;5119444;27;20425;-53
2023/04/17 07:43:46;;;;;;;;;;;20.60;81.30;;;;;;5127694;27;19928;-52
2023/04/17 07:46:12;;;;;;;;;;;20.60;81.20;;;;;;5133147;27;19915;-53
2023/04/17 07:48:38;;;;;;;;;;;20.60;81.20;;;;;;5135515;27;19920;-53
2023/04/17 07:51:03;;;;;;;;;;;20.70;81.20;;;;;;5137316;27;19911;-51
2023/04/17 07:53:29;;;;;;;;;;;20.70;81.20;;;;;;5125069;27;20396;-53
2023/04/17 07:55:54;;;;;;;;;;;20.70;81.20;;;;;;5137001;27;19933;-51
2023/04/17 07:58:21;;;;;;;;;;;20.70;81.10;;;;;;5130076;27;19916;-50
2023/04/17 08:00:46;;;;;;;;;;;20.70;81.10;;;;;;5134580;27;19908;-48
2023/04/17 08:03:14;;;;;;;;;;;20.70;81.20;;;;;;5137439;27;19918;-55
2023/04/17 08:05:40;;;;;;;;;;;20.70;81.30;;;;;;5133859;27;20350;-54
2023/04/17 08:08:06;;;;;;;;;;;20.60;81.20;;;;;;5132059;27;19912;-52
2023/04/17 08:10:32;;;;;;;;;;;20.60;81.30;;;;;;5134927;27;20018;-54
2023/04/17 08:12:57;;;;;;;;;;;20.60;81.40;;;;;;5135217;27;20282;-55
2023/04/17 08:15:23;;;;;;;;;;;20.60;81.50;;;;;;5135025;27;19915;-54
2023/04/17 08:17:48;;;;;;;;;;;20.60;81.40;;;;;;5137047;27;20002;-56
2023/04/17 08:20:16;;;;;;;;;;;20.60;81.40;;;;;;5131364;27;19964;-49
2023/04/17 08:22:42;;;;;;;;;;;20.70;81.50;;;;;;5127215;27;20373;-53
2023/04/17 08:25:08;;;;;;;;;;;20.70;81.50;;;;;;5132432;27;19911;-55
2023/04/17 08:27:35;;;;;;;;;;;20.70;81.40;;;;;;5133150;27;19956;-54
2023/04/17 08:30:01;;;;;;;;;;;20.70;81.40;;;;;;5136847;27;19912;-52
2023/04/17 08:32:27;;;;;;;;;;;20.70;81.30;;;;;;5127441;27;19916;-52
2023/04/17 08:34:52;;;;;;;;;;;20.70;81.40;;;;;;5134399;27;19908;-51
2023/04/17 08:37:18;;;;;;;;;;;20.70;81.40;;;;;;5134382;27;19958;-52
2023/04/17 08:39:43;;;;;;;;;;;20.70;81.40;;;;;;5132139;27;20354;-49
2023/04/17 08:42:13;;;;;;;;;;;20.70;81.40;;;;;;5120915;27;19920;-57
2023/04/17 08:44:38;;;;;;;;;;;20.70;81.40;;;;;;5132377;27;20372;-52
2023/04/17 08:47:04;;;;;;;;;;;20.70;81.40;;;;;;5128835;27;19912;-54
2023/04/17 08:49:32;;;;;;;;;;;20.70;81.40;;;;;;5132279;27;20044;-48
2023/04/17 08:52:00;;;;;;;;;;;20.70;81.40;;;;;;5128838;27;20010;-50
2023/04/17 08:54:26;;;;;;;;;;;20.70;81.40;;;;;;5130556;27;20273;-52
2023/04/17 08:56:52;;;;;;;;;;;20.70;81.40;;;;;;5136791;27;20396;-52
2023/04/17 08:59:17;;;;;;;;;;;20.70;81.40;;;;;;5134634;27;19911;-54
2023/04/17 09:02:05;;;;;;;;;;;20.70;81.60;;;;;;5133363;27;19912;-50
2023/04/17 09:04:39;;;;;;;;;;;20.60;81.60;;;;;;5129203;27;19923;-50
2023/04/17 09:07:05;;;;;;;;;;;20.70;81.70;;;;;;5111268;27;20341;-51
2023/04/17 09:09:46;;;;;;;;;;;20.60;81.60;;;;;;5122836;27;19915;-52
2023/04/17 09:12:12;;;;;;;;;;;20.70;81.70;;;;;;5104938;27;20060;-54
2023/04/17 09:14:38;;;;;;;;;;;20.70;81.70;;;;;;5125617;27;20002;-53
2023/04/17 09:17:03;;;;;;;;;;;20.70;81.50;;;;;;5131421;27;19918;-49
2023/04/17 09:19:29;;;;;;;;;;;20.70;81.50;;;;;;5133727;27;20058;-57
2023/04/17 09:21:54;;;;;;;;;;;20.70;81.40;;;;;;5136102;27;19931;-52
2023/04/17 09:24:33;;;;;;;;;;;20.70;81.40;;;;;;5133149;27;19958;-54
2023/04/17 09:27:17;;;;;;;;;;;20.70;81.40;;;;;;5136313;27;19911;-55
2023/04/17 09:29:58;;;;;;;;;;;20.70;81.50;;;;;;5120861;27;19970;-53
2023/04/17 09:32:27;;;;;;;;;;;20.70;81.10;;;;;;5130261;27;19916;-52
2023/04/17 09:34:53;;;;;;;;;;;20.70;81.40;;;;;;5131980;27;19913;-55
2023/04/17 09:37:19;;;;;;;;;;;20.70;81.50;;;;;;5123530;27;20248;-51
2023/04/17 09:40:01;;;;;;;;;;;20.70;81.40;;;;;;5133233;27;19918;-54
2023/04/17 09:42:27;;;;;;;;;;;20.70;81.50;;;;;;5131261;27;20027;-52
2023/04/17 09:44:53;;;;;;;;;;;20.60;81.50;;;;;;5135364;27;20350;-55
2023/04/17 09:47:19;;;;;;;;;;;20.60;81.50;;;;;;5132992;27;19911;-54
2023/04/17 09:49:48;;;;;;;;;;;20.60;81.60;;;;;;5135126;27;19911;-53
2023/04/17 09:52:18;;;;;;;;;;;20.60;81.60;;;;;;5128919;27;19919;-51
2023/04/17 09:54:45;;;;;;;;;;;20.60;81.70;;;;;;5132897;27;20369;-56
2023/04/17 09:57:11;;;;;;;;;;;20.60;81.70;;;;;;5129197;27;20358;-53
2023/04/17 09:59:37;;;;;;;;;;;20.60;81.80;;;;;;5130232;27;19962;-53
2023/04/17 10:02:05;;;;;;;;;;;20.60;81.90;;;;;;5132409;27;19964;-52
2023/04/17 10:04:32;;;;;;;;;;;20.60;82.00;;;;;;5130770;27;20395;-55
2023/04/17 10:06:57;;;;;;;;;;;20.60;82.00;;;;;;5116643;27;19922;-56
2023/04/17 10:09:23;;;;;;;;;;;20.60;81.90;;;;;;5132475;27;19920;-56
2023/04/17 10:11:49;;;;;;;;;;;20.60;81.90;;;;;;5124313;27;19947;-52
2023/04/17 10:14:29;;;;;;;;;;;20.60;82.00;;;;;;5114344;27;19947;-53
2023/04/17 10:16:55;;;;;;;;;;;20.60;81.90;;;;;;5094130;28;19951;-57
2023/04/17 10:19:34;;;;;;;;;;;20.60;81.90;;;;;;5118043;27;19947;-51
2023/04/17 10:22:16;;;;;;;;;;;20.60;81.90;;;;;;5135167;27;20230;-54
2023/04/17 10:24:42;;;;;;;;;;;20.70;81.90;;;;;;5127294;27;19931;-53
2023/04/17 10:27:23;;;;;;;;;;;20.70;81.60;;;;;;5129786;27;19983;-55
2023/04/17 10:29:52;;;;;;;;;;;20.70;81.70;;;;;;5125570;27;20314;-51
2023/04/17 10:32:18;;;;;;;;;;;20.70;81.60;;;;;;5120397;28;20018;-51
2023/04/17 10:34:43;;;;;;;;;;;20.70;81.60;;;;;;5120776;27;20020;-52
2023/04/17 10:37:14;;;;;;;;;;;20.70;81.50;;;;;;5104098;27;19966;-54
2023/04/17 10:39:49;;;;;;;;;;;20.70;81.50;;;;;;5115933;27;19907;-49
2023/04/17 10:42:21;;;;;;;;;;;20.70;81.60;;;;;;5124941;28;19920;-47
2023/04/17 10:44:47;;;;;;;;;;;20.70;81.60;;;;;;5115167;28;19977;-46
2023/04/17 10:47:13;;;;;;;;;;;20.70;81.60;;;;;;5107336;28;19923;-48
2023/04/17 10:49:47;;;;;;;;;;;20.70;81.50;;;;;;5116791;28;19916;-49
2023/04/17 10:52:31;;;;;;;;;;;20.70;81.30;;;;;;5115887;27;19950;-51
2023/04/17 10:55:25;;;;;;;;;;;20.70;81.40;;;;;;5114029;28;19914;-51
2023/04/17 10:57:57;;;;;;;;;;;20.70;81.50;;;;;;5104641;28;19912;-57
2023/04/17 11:00:30;;;;;;;;;;;20.70;81.40;;;;;;5126786;28;19938;-57
2023/04/17 11:02:55;;;;;;;;;;;20.70;81.50;;;;;;5114436;28;19908;-57
2023/04/17 11:05:22;;;;;;;;;;;20.70;81.50;;;;;;5113663;28;20326;-52
2023/04/17 11:07:50;;;;;;;;;;;20.70;81.40;;;;;;5113761;28;20077;-50
2023/04/17 11:10:19;;;;;;;;;;;20.80;81.40;;;;;;5117425;28;19923;-55
2023/04/17 11:12:50;;;;;;;;;;;20.80;80.90;;;;;;5125229;27;20440;-55
2023/04/17 11:15:15;;;;;;;;;;;20.80;81.30;;;;;;5129120;27;20002;-57
2023/04/17 11:17:45;;;;;;;;;;;20.80;81.10;;;;;;5132446;27;19948;-51
2023/04/17 11:20:11;;;;;;;;;;;20.80;81.00;;;;;;5137871;27;19962;-54
2023/04/17 11:22:37;;;;;;;;;;;20.90;81.30;;;;;;5135955;27;19912;-57
2023/04/17 11:25:03;;;;;;;;;;;20.90;81.30;;;;;;5134458;27;20388;-57
2023/04/17 11:27:28;;;;;;;;;;;20.90;81.40;;;;;;5129349;27;20052;-51
2023/04/17 11:29:54;;;;;;;;;;;20.80;81.50;;;;;;5133556;27;19915;-57
2023/04/17 11:32:19;;;;;;;;;;;20.80;81.60;;;;;;5134492;27;19922;-53
2023/04/17 11:34:45;;;;;;;;;;;20.70;81.70;;;;;;5129305;27;20289;-57
2023/04/17 11:37:12;;;;;;;;;;;20.70;81.80;;;;;;5134001;27;19920;-54
2023/04/17 11:39:40;;;;;;;;;;;20.70;81.80;;;;;;5137921;27;19908;-50
2023/04/17 11:42:05;;;;;;;;;;;20.70;81.90;;;;;;5135223;27;19919;-57
2023/04/17 11:44:31;;;;;;;;;;;20.80;81.90;;;;;;5135003;27;20295;-58
2023/04/17 11:46:59;;;;;;;;;;;20.80;81.90;;;;;;5137547;27;20008;-56
2023/04/17 11:49:26;;;;;;;;;;;20.80;81.90;;;;;;5117012;27;19963;-51
2023/04/17 11:51:52;;;;;;;;;;;20.80;81.90;;;;;;5127614;27;19999;-55
2023/04/17 11:54:27;;;;;;;;;;;20.80;81.90;;;;;;5124730;27;19911;-57
2023/04/17 11:57:00;;;;;;;;;;;20.80;81.70;;;;;;5135028;27;19957;-57
2023/04/17 11:59:30;;;;;;;;;;;20.90;81.50;;;;;;5135998;27;20207;-58
2023/04/17 12:01:55;;;;;;;;;;;21.00;81.60;;;;;;5123536;27;19911;-54
2023/04/17 12:04:21;;;;;;;;;;;21.00;81.40;;;;;;5131920;27;19934;-53
2023/04/17 12:06:46;;;;;;;;;;;21.00;81.50;;;;;;5125110;27;19918;-56
2023/04/17 12:09:18;;;;;;;;;;;21.00;81.50;;;;;;5130044;27;19959;-56
2023/04/17 12:11:44;;;;;;;;;;;21.00;81.50;;;;;;5133233;27;19915;-57
2023/04/17 12:14:10;;;;;;;;;;;21.00;81.60;;;;;;5137249;27;19914;-56
2023/04/17 12:16:36;;;;;;;;;;;21.00;81.70;;;;;;5128298;27;19911;-56
2023/04/17 12:19:01;;;;;;;;;;;21.00;81.70;;;;;;5117291;27;20267;-58
2023/04/17 12:21:27;;;;;;;;;;;21.00;81.80;;;;;;5137563;27;20002;-57
2023/04/17 12:23:52;;;;;;;;;;;20.90;81.80;;;;;;5124688;27;19927;-57
2023/04/17 12:26:18;;;;;;;;;;;20.90;81.90;;;;;;5122486;27;19916;-56
2023/04/17 12:28:44;;;;;;;;;;;20.90;81.80;;;;;;5129396;27;19915;-58
2023/04/17 12:31:09;;;;;;;;;;;20.80;81.80;;;;;;5134752;27;19920;-57
2023/04/17 12:33:34;;;;;;;;;;;20.80;82.00;;;;;;5133636;27;20243;-55
2023/04/17 12:36:01;;;;;;;;;;;20.80;82.20;;;;;;5124477;27;20006;-53
2023/04/17 12:38:26;;;;;;;;;;;20.70;82.20;;;;;;5120603;27;19915;-55
2023/04/17 12:40:52;;;;;;;;;;;20.70;82.40;;;;;;5129449;27;19921;-53
2023/04/17 12:43:17;;;;;;;;;;;20.70;82.50;;;;;;5128917;27;19984;-56
2023/04/17 12:45:44;;;;;;;;;;;20.70;82.50;;;;;;5130191;27;19919;-58
2023/04/17 12:48:10;;;;;;;;;;;20.70;82.40;;;;;;5124026;27;19937;-56
2023/04/17 12:50:41;;;;;;;;;;;20.70;82.40;;;;;;5136265;27;19917;-55
2023/04/17 12:53:09;;;;;;;;;;;20.70;82.40;;;;;;5115951;27;20410;-55
2023/04/17 12:55:37;;;;;;;;;;;20.80;82.40;;;;;;5122754;27;19937;-56
2023/04/17 12:58:04;;;;;;;;;;;20.80;82.30;;;;;;5126781;27;20362;-58
2023/04/17 13:00:29;;;;;;;;;;;20.80;82.30;;;;;;5135970;27;20407;-55
2023/04/17 13:02:55;;;;;;;;;;;20.80;82.20;;;;;;5126823;27;19915;-54
2023/04/17 13:05:20;;;;;;;;;;;20.90;82.20;;;;;;5127409;27;19912;-52
2023/04/17 13:07:46;;;;;;;;;;;20.90;82.10;;;;;;5115158;28;19953;-56
2023/04/17 13:10:11;;;;;;;;;;;20.90;82.10;;;;;;5116764;27;19919;-55
2023/04/17 13:12:37;;;;;;;;;;;20.90;82.10;;;;;;5120551;27;19915;-55
2023/04/17 13:15:02;;;;;;;;;;;20.90;82.00;;;;;;5132763;27;19958;-53
2023/04/17 13:17:28;;;;;;;;;;;21.00;82.00;;;;;;5115022;27;19912;-55
2023/04/17 13:19:53;;;;;;;;;;;21.00;82.00;;;;;;5115211;27;19908;-54
2023/04/17 13:22:19;;;;;;;;;;;21.00;81.90;;;;;;5135560;27;19908;-53
2023/04/17 13:24:45;;;;;;;;;;;21.00;81.80;;;;;;5128727;27;20359;-56
2023/04/17 13:27:10;;;;;;;;;;;21.00;81.80;;;;;;5117171;27;20274;-57
2023/04/17 13:29:36;;;;;;;;;;;21.00;81.80;;;;;;5114976;27;20344;-57
2023/04/17 13:32:02;;;;;;;;;;;21.00;81.80;;;;;;5120505;27;20478;-56
2023/04/17 13:34:27;;;;;;;;;;;21.10;81.90;;;;;;5134543;27;19915;-55
2023/04/17 13:36:56;;;;;;;;;;;21.10;81.90;;;;;;5130602;27;19911;-53
2023/04/17 13:39:21;;;;;;;;;;;21.10;81.90;;;;;;5134534;27;19911;-49
2023/04/17 13:41:47;;;;;;;;;;;21.00;82.00;;;;;;5130874;27;19994;-55
2023/04/17 13:44:13;;;;;;;;;;;21.00;82.00;;;;;;5122044;27;19922;-54
2023/04/17 13:46:39;;;;;;;;;;;21.00;82.10;;;;;;5131847;27;19912;-57
2023/04/17 13:49:05;;;;;;;;;;;20.90;82.10;;;;;;5135080;27;20425;-56
2023/04/17 13:51:30;;;;;;;;;;;20.90;82.30;;;;;;5120896;27;20007;-56
2023/04/17 13:53:59;;;;;;;;;;;20.80;82.40;;;;;;5130549;27;20291;-56
2023/04/17 13:56:25;;;;;;;;;;;20.80;82.50;;;;;;5134990;27;19952;-59
2023/04/17 13:58:51;;;;;;;;;;;20.80;82.60;;;;;;5128216;27;19915;-58
2023/04/17 14:01:17;;;;;;;;;;;20.80;82.60;;;;;;5125232;27;20000;-56
2023/04/17 14:03:42;;;;;;;;;;;20.80;82.70;;;;;;5129503;27;19979;-55
2023/04/17 14:06:08;;;;;;;;;;;20.80;82.80;;;;;;5130036;27;19968;-52
2023/04/17 14:08:33;;;;;;;;;;;20.80;82.80;;;;;;5127434;27;19927;-53
2023/04/17 14:10:59;;;;;;;;;;;20.80;82.80;;;;;;5135062;27;20342;-55
2023/04/17 14:13:24;;;;;;;;;;;20.80;82.80;;;;;;5133382;27;19915;-54